Time;durP1;ratioP1;P1;durP2;ratioP2;P2;SDS_P1;SDS_P2;PMS_P1;PMS_P2;Temp;Humidity;BMP_temperature;BMP_pressure;BME280_temperature;BME280_humidity;BME280_pressure;Samples;Min_cycle;Max_cycle;Signal;HPM_P1;HPM_P2
2021/06/04 00:01:17;;;;;;;9.50;8.43;;;;;;;20.00;63.92;102068.00;5113823;28;19912;-39
2021/06/04 00:03:44;;;;;;;10.35;7.85;;;;;;;19.98;63.46;102067.44;5114019;28;20059;-39
2021/06/04 00:06:09;;;;;;;10.13;7.53;;;;;;;19.90;63.72;102070.66;5112753;28;20039;-39
2021/06/04 00:08:35;;;;;;;;;;;;;;;20.07;62.74;102071.34;5113831;28;20023;-39
2021/06/04 00:11:08;;;;;;;10.63;7.72;;;;;;;19.94;63.08;102075.38;5114332;28;19908;-40
2021/06/04 00:13:42;;;;;;;11.15;7.38;;;;;;;19.87;63.69;102072.03;5113418;28;20032;-39
2021/06/04 00:16:13;;;;;;;12.18;7.45;;;;;;;19.83;64.27;102079.13;5117382;28;20023;-39
2021/06/04 00:18:40;;;;;;;9.02;7.60;;;;;;;19.79;64.28;102070.59;5117473;28;20077;-39
2021/06/04 00:21:10;;;;;;;7.82;7.03;;;;;;;19.74;64.43;102065.06;5117352;28;20035;-39
2021/06/04 00:23:37;;;;;;;9.48;7.03;;;;;;;19.68;64.25;102074.38;5116910;28;20535;-39
2021/06/04 00:26:05;;;;;;;9.98;7.72;;;;;;;19.66;63.87;102068.28;5116931;28;20023;-39
2021/06/04 00:28:30;;;;;;;9.23;7.93;;;;;;;19.75;63.87;102068.63;5117383;28;20371;-39
2021/06/04 00:30:56;;;;;;;;;;;;;;;19.82;63.06;102066.50;5117935;28;20028;-39
2021/06/04 00:33:22;;;;;;;10.25;7.53;;;;;;;19.67;63.90;102060.91;5116361;28;20010;-39
2021/06/04 00:35:47;;;;;;;;;;;;;;;19.77;63.04;102050.00;5117765;28;20059;-39
2021/06/04 00:38:12;;;;;;;8.65;7.05;;;;;;;19.61;63.73;102054.53;5117462;28;19922;-39
2021/06/04 00:40:44;;;;;;;9.43;7.55;;;;;;;19.53;64.19;102055.00;5117744;28;20051;-39
2021/06/04 00:43:10;;;;;;;8.45;7.45;;;;;;;19.56;63.89;102062.69;5117063;28;20152;-39
2021/06/04 00:45:39;;;;;;;9.95;7.97;;;;;;;19.47;64.39;102059.63;5117196;28;20035;-39
2021/06/04 00:48:05;;;;;;;9.05;8.07;;;;;;;19.43;64.89;102050.25;5116994;28;20028;-39
2021/06/04 00:50:43;;;;;;;10.10;7.70;;;;;;;19.45;64.62;102058.22;5116725;28;20030;-39
2021/06/04 00:53:08;;;;;;;10.93;7.60;;;;;;;19.44;64.63;102051.91;5116739;28;20088;-39
2021/06/04 00:55:34;;;;;;;;;;;;;;;19.55;63.44;102059.13;5117890;28;20027;-39
2021/06/04 00:58:00;;;;;;;10.05;7.90;;;;;;;19.36;64.73;102052.38;5116526;28;19919;-39
2021/06/04 01:00:32;;;;;;;;;;;;;;;19.49;63.53;102051.94;5116993;28;20028;-39
2021/06/04 01:02:58;;;;;;;12.88;7.68;;;;;;;19.17;65.64;102051.91;5116515;28;20026;-39
2021/06/04 01:05:28;;;;;;;10.65;8.00;;;;;;;19.27;65.35;102053.94;5116920;28;20054;-39
2021/06/04 01:08:02;;;;;;;13.38;7.93;;;;;;;19.30;64.97;102043.28;5117193;28;20023;-39
2021/06/04 01:10:47;;;;;;;10.27;8.20;;;;;;;19.31;64.94;102049.59;5116076;28;20059;-39
2021/06/04 01:13:22;;;;;;;13.18;8.05;;;;;;;19.23;65.23;102050.06;5116718;28;20027;-39
2021/06/04 01:16:09;;;;;;;11.13;8.55;;;;;;;19.23;65.23;102045.41;5117254;28;20020;-38
2021/06/04 01:18:46;;;;;;;11.13;9.00;;;;;;;19.24;65.15;102049.81;5114866;28;20051;-38
2021/06/04 01:21:36;;;;;;;12.10;9.38;;;;;;;19.13;65.69;102044.47;5116170;28;20023;-39
2021/06/04 01:24:18;;;;;;;11.98;8.63;;;;;;;19.08;65.71;102053.50;5116124;28;20023;-39
2021/06/04 01:26:50;;;;;;;12.38;8.73;;;;;;;18.97;66.34;102046.22;5115993;28;20143;-39
2021/06/04 01:29:34;;;;;;;10.68;9.43;;;;;;;19.03;66.18;102045.19;5116201;28;20027;-39
2021/06/04 01:32:08;;;;;;;10.95;8.57;;;;;;;18.93;66.23;102051.41;5115643;28;20058;-38
2021/06/04 01:34:39;;;;;;;12.63;9.32;;;;;;;18.88;66.58;102051.34;5116138;28;20452;-44
2021/06/04 01:37:17;;;;;;;11.27;9.27;;;;;;;18.85;66.74;102056.53;5116030;28;20463;-39
2021/06/04 01:39:46;;;;;;;12.43;9.07;;;;;;;18.91;66.81;102052.75;5115589;28;20027;-39
2021/06/04 01:42:15;;;;;;;9.55;8.55;;;;;;;18.89;66.97;102049.47;5115755;28;20023;-39
2021/06/04 01:44:55;;;;;;;10.25;9.27;;;;;;;18.87;66.86;102057.09;5115744;28;20073;-39
2021/06/04 01:47:37;;;;;;;11.95;9.18;;;;;;;18.78;66.92;102049.31;5115738;28;20055;-39
2021/06/04 01:50:27;;;;;;;11.18;9.88;;;;;;;18.80;67.23;102060.03;5115421;28;20039;-39
2021/06/04 01:52:54;;;;;;;11.20;9.68;;;;;;;18.75;67.32;102046.28;5116179;28;20160;-39
2021/06/04 01:55:27;;;;;;;11.00;8.70;;;;;;;18.74;67.24;102056.41;5115837;28;20042;-39
2021/06/04 01:58:00;;;;;;;13.27;9.65;;;;;;;18.74;67.68;102056.41;5115374;28;20480;-39
2021/06/04 02:00:55;;;;;;;12.18;9.68;;;;;;;18.71;66.83;102058.84;5115399;28;20032;-39
2021/06/04 02:03:22;;;;;;;11.93;10.05;;;;;;;18.62;67.50;102061.16;5115292;27;20540;-39
2021/06/04 02:05:50;;;;;;;11.18;9.13;;;;;;;18.59;67.84;102050.69;5115230;28;20020;-39
2021/06/04 02:08:32;;;;;;;14.15;10.75;;;;;;;18.58;67.51;102054.53;5115164;28;20118;-39
2021/06/04 02:10:57;;;;;;;13.07;10.13;;;;;;;18.31;68.87;102048.16;5116013;28;20406;-39
2021/06/04 02:13:23;;;;;;;;;;;;;;;18.52;66.65;102059.13;5115296;28;20031;-39
2021/06/04 02:15:55;;;;;;;12.73;10.18;;;;;;;18.31;69.13;102053.66;5115275;28;20286;-39
2021/06/04 02:18:34;;;;;;;11.80;10.38;;;;;;;18.26;68.34;102052.50;5115432;28;20483;-40
2021/06/04 02:21:04;;;;;;;15.02;11.48;;;;;;;18.25;69.05;102056.31;5115502;28;20023;-40
2021/06/04 02:23:29;;;;;;;13.20;11.38;;;;;;;18.15;69.57;102053.41;5114801;28;20016;-39
2021/06/04 02:25:54;;;;;;;;;;;;;;;18.36;67.24;102059.19;5115764;28;20040;-39
2021/06/04 02:28:29;;;;;;;13.30;11.27;;;;;;;18.19;69.19;102051.81;5114776;28;19955;-39
2021/06/04 02:31:02;;;;;;;12.82;11.57;;;;;;;18.21;69.24;102048.88;5114574;28;20103;-39
2021/06/04 02:33:45;;;;;;;13.75;12.18;;;;;;;18.14;69.33;102050.94;5114692;28;20028;-39
2021/06/04 02:36:22;;;;;;;13.75;12.13;;;;;;;18.11;69.96;102063.22;5114975;28;20035;-38
2021/06/04 02:39:08;;;;;;;15.73;13.02;;;;;;;18.14;68.90;102061.88;5114633;28;20055;-38
2021/06/04 02:41:41;;;;;;;16.92;13.05;;;;;;;18.12;69.87;102066.78;5114941;28;20062;-38
2021/06/04 02:44:41;;;;;;;17.58;13.75;;;;;;;18.08;69.48;102071.94;5115095;28;20046;-38
2021/06/04 02:47:11;;;;;;;15.65;13.90;;;;;;;18.00;69.97;102064.13;5091905;28;20507;-40
2021/06/04 02:49:38;;;;;;;15.48;13.18;;;;;;;17.91;70.48;102073.84;5092264;28;20079;-40
2021/06/04 02:52:28;;;;;;;20.63;14.35;;;;;;;17.93;70.06;102074.44;5091954;28;20147;-40
2021/06/04 02:54:53;;;;;;;16.60;13.77;;;;;;;17.73;71.11;102080.44;5091996;28;20393;-40
2021/06/04 02:57:24;;;;;;;16.52;13.85;;;;;;;17.58;71.58;102089.19;5091653;28;20085;-39
2021/06/04 02:59:50;;;;;;;15.02;13.43;;;;;;;17.53;71.77;102088.28;5091832;28;20035;-39
2021/06/04 03:02:23;;;;;;;16.92;14.35;;;;;;;17.44;72.16;102094.13;5091819;28;20353;-40
2021/06/04 03:04:56;;;;;;;17.20;14.10;;;;;;;17.45;72.52;102108.63;5092293;28;20040;-40
2021/06/04 03:07:25;;;;;;;16.58;13.90;;;;;;;17.30;72.77;102105.63;5091494;28;20488;-40
2021/06/04 03:09:53;;;;;;;14.77;13.23;;;;;;;17.27;72.91;102092.44;5091483;28;20044;-39
2021/06/04 03:12:28;;;;;;;18.75;14.07;;;;;;;17.14;73.79;102099.06;5091333;28;20205;-39
2021/06/04 03:14:57;;;;;;;16.88;14.60;;;;;;;17.01;73.86;102089.22;5091643;28;20032;-39
2021/06/04 03:17:27;;;;;;;16.40;14.23;;;;;;;17.05;73.74;102089.59;5091334;28;20172;-39
2021/06/04 03:19:53;;;;;;;15.00;12.90;;;;;;;17.10;73.63;102097.88;5074660;28;20170;-39
2021/06/04 03:22:25;;;;;;;;;;;;;;;17.24;70.99;102088.31;5092981;28;20044;-39
2021/06/04 03:24:51;;;;;;;17.35;13.27;;;;;;;17.05;73.14;102081.38;5112879;28;20244;-39
2021/06/04 03:27:19;;;;;;;14.98;13.27;;;;;;;17.03;73.73;102094.44;5113876;28;20031;-39
2021/06/04 03:29:46;;;;;;;16.00;14.35;;;;;;;16.96;73.89;102100.06;5114209;28;20083;-39
2021/06/04 03:32:13;;;;;;;;;;;;;;;17.19;71.29;102105.44;5114284;28;20459;-40
2021/06/04 03:34:41;;;;;;;15.45;12.88;;;;;;;16.88;74.23;102100.44;5113864;28;19919;-39
2021/06/04 03:37:08;;;;;;;15.65;13.75;;;;;;;16.86;74.14;102097.13;5113698;28;20352;-40
2021/06/04 03:39:40;;;;;;;16.67;13.35;;;;;;;16.81;74.54;102100.59;5113966;28;20027;-39
2021/06/04 03:42:09;;;;;;;14.48;12.52;;;;;;;16.86;74.24;102102.59;5113989;28;20080;-39
2021/06/04 03:44:37;;;;;;;14.93;13.43;;;;;;;16.75;74.49;102100.72;5113304;28;20040;-40
2021/06/04 03:47:04;;;;;;;14.55;13.02;;;;;;;16.68;74.93;102092.63;5113942;28;20056;-39
2021/06/04 03:49:30;;;;;;;14.13;12.63;;;;;;;16.78;74.43;102094.78;5116174;28;20053;-41
2021/06/04 03:51:57;;;;;;;14.48;12.90;;;;;;;16.68;75.25;102096.19;5118151;28;20023;-40
2021/06/04 03:54:29;;;;;;;18.40;13.48;;;;;;;16.61;75.16;102094.69;5118104;28;20032;-39
2021/06/04 03:56:56;;;;;;;15.02;13.48;;;;;;;16.64;75.27;102088.72;5117953;27;20478;-39
2021/06/04 03:59:21;;;;;;;14.52;13.02;;;;;;;16.69;74.65;102092.41;5118565;28;20041;-39
2021/06/04 04:01:51;;;;;;;15.93;13.02;;;;;;;16.73;74.54;102096.31;5117678;28;20448;-40
2021/06/04 04:04:18;;;;;;;17.38;15.20;;;;;;;16.65;75.06;102098.59;5117593;28;20028;-39
2021/06/04 04:06:43;;;;;;;17.05;15.13;;;;;;;16.62;75.55;102097.16;5117659;28;20102;-39
2021/06/04 04:09:09;;;;;;;;;;;;;;;16.86;73.07;102102.59;5118000;28;20050;-40
2021/06/04 04:11:35;;;;;;;16.17;14.57;;;;;;;16.71;74.82;102105.81;5117303;28;19990;-39
2021/06/04 04:14:02;;;;;;;16.88;14.65;;;;;;;16.76;74.81;102105.13;5117457;28;20490;-39
2021/06/04 04:16:27;;;;;;;18.17;14.85;;;;;;;16.52;74.83;102101.56;5117385;28;20027;-40
2021/06/04 04:18:52;;;;;;;16.37;14.47;;;;;;;16.63;74.92;102109.72;5118156;28;20104;-39
2021/06/04 04:21:18;;;;;;;18.77;15.82;;;;;;;16.58;74.79;102117.81;5117615;28;20427;-39
2021/06/04 04:23:45;;;;;;;;;;;;;;;16.77;73.86;102117.69;5117931;28;20024;-40
2021/06/04 04:26:15;;;;;;;18.13;15.95;;;;;;;16.53;75.81;102112.25;5118374;28;19911;-40
2021/06/04 04:28:42;;;;;;;21.40;16.70;;;;;;;16.63;75.71;102106.19;5116815;28;20482;-40
2021/06/04 04:31:10;;;;;;;22.95;17.25;;;;;;;16.64;75.53;102110.56;5117605;28;20032;-39
2021/06/04 04:33:36;;;;;;;17.30;15.40;;;;;;;16.65;75.44;102115.81;5116728;28;20589;-40
2021/06/04 04:36:03;;;;;;;21.45;15.85;;;;;;;16.59;76.50;102114.03;5116592;28;20118;-39
2021/06/04 04:38:29;;;;;;;18.13;16.23;;;;;;;16.71;75.63;102112.13;5117289;28;20116;-39
2021/06/04 04:41:00;;;;;;;;;;;;;;;16.88;73.70;102116.81;5118329;28;20439;-39
2021/06/04 04:43:31;;;;;;;18.25;15.90;;;;;;;16.84;75.03;102115.69;5117524;28;19908;-39
2021/06/04 04:45:57;;;;;;;19.33;16.83;;;;;;;16.94;74.77;102113.97;5116786;28;20027;-39
2021/06/04 04:48:22;;;;;;;;;;;;;;;17.11;73.60;102119.47;5116978;28;20055;-39
2021/06/04 04:50:48;;;;;;;22.07;16.93;;;;;;;16.97;74.51;102115.38;5117100;28;19961;-39
2021/06/04 04:53:15;;;;;;;18.85;17.02;;;;;;;17.01;75.02;102113.81;5116375;28;20276;-39
2021/06/04 04:55:41;;;;;;;22.00;17.08;;;;;;;17.02;74.99;102118.22;5117599;28;20043;-39
2021/06/04 04:58:08;;;;;;;22.27;18.20;;;;;;;17.16;74.87;102114.13;5116518;28;20024;-39
2021/06/04 05:00:34;;;;;;;19.10;16.95;;;;;;;17.25;74.26;102118.13;5115299;28;20030;-39
2021/06/04 05:02:59;;;;;;;19.85;17.63;;;;;;;17.35;73.97;102105.72;5116545;28;20027;-39
2021/06/04 05:05:28;;;;;;;23.35;16.60;;;;;;;17.45;73.32;102105.91;5116102;28;20040;-39
2021/06/04 05:07:53;;;;;;;19.02;17.00;;;;;;;17.59;73.97;102118.19;5116429;28;20392;-39
2021/06/04 05:10:19;;;;;;;18.45;16.50;;;;;;;17.81;73.00;102120.22;5116673;28;20088;-39
2021/06/04 05:12:44;;;;;;;;;;;;;;;18.01;72.32;102113.19;5117574;28;20114;-39
2021/06/04 05:15:13;;;;;;;19.55;16.98;;;;;;;17.96;72.43;102112.28;5117168;28;20295;-39
2021/06/04 05:17:40;;;;;;;23.33;19.95;;;;;;;17.78;73.06;102109.78;5115937;28;20028;-39
2021/06/04 05:20:07;;;;;;;21.75;18.58;;;;;;;17.73;73.46;102105.88;5116444;28;20024;-39
2021/06/04 05:22:32;;;;;;;23.58;19.05;;;;;;;17.73;73.56;102114.09;5116015;28;20023;-39
2021/06/04 05:24:58;;;;;;;;;;;;;;;17.97;72.35;102116.66;5116597;28;20084;-39
2021/06/04 05:27:23;;;;;;;28.95;20.83;;;;;;;17.74;72.97;102112.19;5115999;28;19955;-39
2021/06/04 05:29:49;;;;;;;;;;;;;;;17.89;72.71;102115.16;5117088;28;20035;-40
2021/06/04 05:32:14;;;;;;;21.63;18.80;;;;;;;17.79;72.59;102116.91;5115678;28;19912;-40
2021/06/04 05:34:40;;;;;;;23.08;19.48;;;;;;;17.81;72.82;102121.03;5116249;28;20027;-39
2021/06/04 05:37:05;;;;;;;;;;;;;;;18.01;71.57;102126.88;5116254;28;20490;-40
2021/06/04 05:39:31;;;;;;;24.25;18.83;;;;;;;18.03;71.99;102123.88;5116398;28;19994;-39
2021/06/04 05:41:59;;;;;;;;;;;;;;;18.14;71.18;102133.88;5116229;28;20463;-40
2021/06/04 05:44:26;;;;;;;23.30;17.85;;;;;;;18.01;71.30;102131.50;5116477;28;19957;-39
2021/06/04 05:46:56;;;;;;;25.58;20.20;;;;;;;17.94;72.09;102130.84;5115882;28;20075;-39
2021/06/04 05:49:22;;;;;;;27.92;20.10;;;;;;;17.96;71.47;102135.00;5115870;28;20042;-39
2021/06/04 05:51:47;;;;;;;;;;;;;;;18.13;70.89;102128.66;5115665;28;20047;-39
2021/06/04 05:54:14;;;;;;;23.42;19.48;;;;;;;17.94;72.42;102126.19;5115775;28;19939;-39
2021/06/04 05:56:39;;;;;;;24.67;19.90;;;;;;;17.94;73.38;102130.84;5116157;28;20027;-40
2021/06/04 05:59:04;;;;;;;;;;;;;;;18.18;71.56;102128.75;5115544;28;20399;-40
2021/06/04 06:01:34;;;;;;;25.63;19.88;;;;;;;18.08;71.63;102126.69;5115615;28;20396;-40
2021/06/04 06:04:00;;;;;;;25.17;20.13;;;;;;;18.01;72.36;102129.59;5115515;28;20028;-40
2021/06/04 06:06:25;;;;;;;;;;;;;;;18.27;70.97;102127.25;5115950;28;20073;-40
2021/06/04 06:08:51;;;;;;;27.73;19.50;;;;;;;18.23;71.21;102140.59;5115736;28;19908;-39
2021/06/04 06:11:21;;;;;;;;;;;;;;;18.40;70.95;102140.59;5116311;28;20440;-40
2021/06/04 06:13:46;;;;;;;21.98;18.58;;;;;;;18.37;71.80;102146.56;5115085;28;19908;-40
2021/06/04 06:16:11;;;;;;;;;;;;;;;18.54;70.94;102146.50;5116360;28;20035;-39
2021/06/04 06:18:37;;;;;;;28.63;21.83;;;;;;;18.32;72.34;102132.78;5114961;28;19920;-40
2021/06/04 06:21:02;;;;;;;;;;;;;;;18.54;70.70;102146.50;5115782;28;20035;-40
2021/06/04 06:23:31;;;;;;;25.20;21.25;;;;;;;18.41;72.56;102146.88;5115277;28;19912;-39
2021/06/04 06:26:01;;;;;;;25.38;20.63;;;;;;;18.41;72.65;102147.72;5115511;28;20031;-41
2021/06/04 06:28:32;;;;;;;29.50;21.20;;;;;;;18.47;71.84;102140.41;5115145;28;20352;-41
2021/06/04 06:30:58;;;;;;;25.70;21.73;;;;;;;18.58;71.53;102144.09;5115226;28;20118;-40
2021/06/04 06:33:23;;;;;;;;;;;;;;;18.76;70.51;102150.13;5114917;28;20110;-40
2021/06/04 06:35:52;;;;;;;24.20;21.30;;;;;;;18.63;72.24;102147.72;5114449;28;19929;-40
2021/06/04 06:38:19;;;;;;;29.42;23.45;;;;;;;18.69;72.21;102146.78;5115113;28;20028;-40
2021/06/04 06:40:45;;;;;;;25.48;21.92;;;;;;;18.83;70.34;102146.38;5115196;28;20036;-40
2021/06/04 06:43:12;;;;;;;24.77;21.75;;;;;;;18.83;70.16;102152.69;5115318;28;20066;-40
2021/06/04 06:45:38;;;;;;;24.92;21.35;;;;;;;19.04;69.27;102151.03;5114497;28;20031;-40
2021/06/04 06:48:04;;;;;;;23.67;21.17;;;;;;;19.27;69.62;102144.44;5114426;28;20031;-40
2021/06/04 06:50:30;;;;;;;;;;;;;;;19.56;69.07;102142.25;5114584;28;20028;-40
2021/06/04 06:53:02;;;;;;;23.90;19.80;;;;;;;19.76;68.24;102128.78;5114350;28;19908;-40
2021/06/04 06:55:29;;;;;;;24.25;20.90;;;;;;;19.87;67.98;102139.84;5114682;28;20036;-40
2021/06/04 06:57:55;;;;;;;25.98;21.13;;;;;;;20.08;66.70;102144.38;5114188;28;20031;-41
2021/06/04 07:00:25;;;;;;;;;;;;;;;20.29;66.14;102148.91;5114754;28;20375;-40
2021/06/04 07:02:50;;;;;;;24.17;19.55;;;;;;;20.29;66.47;102151.66;5115003;28;20258;-40
2021/06/04 07:05:16;;;;;;;;;;;;;;;20.39;66.82;102150.06;5115063;28;20118;-40
2021/06/04 07:07:42;;;;;;;20.58;17.52;;;;;;;20.29;66.38;102148.09;5114159;28;19957;-40
2021/06/04 07:10:08;;;;;;;;;;;;;;;20.52;66.28;102144.16;5114299;28;20471;-40
2021/06/04 07:12:34;;;;;;;19.58;15.57;;;;;;;20.53;64.95;102137.56;5113944;28;19952;-40
2021/06/04 07:14:59;;;;;;;;;;;;;;;20.71;65.90;102144.53;5114496;28;20039;-40
2021/06/04 07:17:26;;;;;;;17.33;15.43;;;;;;;20.53;64.94;102137.56;5114196;28;20407;-40
2021/06/04 07:19:52;;;;;;;21.80;17.08;;;;;;;20.48;65.25;102140.28;5113883;28;20067;-40
2021/06/04 07:22:17;;;;;;;;;;;;;;;20.66;65.80;102141.75;5113324;28;20471;-40
2021/06/04 07:24:42;;;;;;;19.90;16.08;;;;;;;20.45;65.86;102135.31;5113113;28;19966;-40
2021/06/04 07:27:08;;;;;;;;;;;;;;;20.55;65.67;102149.94;5113961;28;20032;-40
2021/06/04 07:29:33;;;;;;;22.48;18.38;;;;;;;20.28;66.62;102150.00;5113833;28;19912;-40
2021/06/04 07:31:59;;;;;;;;;;;;;;;20.43;66.88;102153.97;5113914;28;20147;-40
2021/06/04 07:34:27;;;;;;;21.90;16.98;;;;;;;20.39;67.27;102141.84;5114067;28;19912;-40
2021/06/04 07:36:56;;;;;;;21.83;18.77;;;;;;;20.58;65.98;102152.16;5113857;28;20053;-40
2021/06/04 07:39:27;;;;;;;23.65;20.15;;;;;;;20.66;66.81;102150.00;5113748;28;20024;-40
2021/06/04 07:41:53;;;;;;;22.55;17.35;;;;;;;20.76;67.25;102150.88;5113662;28;20023;-40
2021/06/04 07:44:18;;;;;;;;;;;;;;;20.95;65.65;102144.91;5113480;28;20016;-40
2021/06/04 07:46:45;;;;;;;19.60;16.63;;;;;;;20.95;64.12;102147.66;5113901;28;19908;-40
2021/06/04 07:49:12;;;;;;;23.00;18.13;;;;;;;21.12;64.22;102147.44;5113607;28;20051;-40
2021/06/04 07:51:45;;;;;;;25.80;19.90;;;;;;;21.25;66.06;102146.94;5113650;28;20019;-40
2021/06/04 07:54:11;;;;;;;27.08;21.13;;;;;;;21.04;64.75;102141.38;5113678;28;20029;-40
2021/06/04 07:56:39;;;;;;;26.85;21.10;;;;;;;21.27;65.51;102156.53;5113586;28;20052;-40
2021/06/04 07:59:05;;;;;;;25.42;19.92;;;;;;;21.24;65.29;102151.59;5114309;28;20036;-40
2021/06/04 08:01:30;;;;;;;24.65;19.27;;;;;;;21.32;64.22;102151.09;5113530;28;20050;-40
2021/06/04 08:03:57;;;;;;;26.17;21.90;;;;;;;21.24;63.63;102150.78;5113482;28;20463;-40
2021/06/04 08:06:23;;;;;;;27.08;21.45;;;;;;;21.23;63.43;102149.13;5113328;28;20070;-40
2021/06/04 08:08:53;;;;;;;25.23;21.38;;;;;;;21.21;63.63;102152.13;5113536;28;20420;-40
2021/06/04 08:11:23;;;;;;;25.15;20.65;;;;;;;21.25;63.64;102150.50;5113813;28;20089;-40
2021/06/04 08:13:48;;;;;;;24.23;21.58;;;;;;;21.25;65.71;102153.25;5114279;28;20118;-40
2021/06/04 08:16:14;;;;;;;26.77;22.30;;;;;;;21.17;65.34;102144.69;5114190;28;20108;-40
2021/06/04 08:18:41;;;;;;;28.00;23.58;;;;;;;21.19;64.62;102148.00;5112055;28;20454;-40
2021/06/04 08:21:30;;;;;;;27.55;24.58;;;;;;;21.25;64.54;102146.94;5113664;28;20429;-40
2021/06/04 08:23:55;;;;;;;28.70;24.25;;;;;;;21.20;63.69;102142.22;5110184;28;20043;-40
2021/06/04 08:26:24;;;;;;;28.08;24.00;;;;;;;21.07;63.20;102153.75;5113315;28;20377;-40
2021/06/04 08:28:50;;;;;;;24.60;21.98;;;;;;;21.25;64.19;102142.25;5113337;28;20034;-40
2021/06/04 08:31:17;;;;;;;25.63;23.05;;;;;;;21.31;62.79;102151.38;5114128;28;20027;-41
2021/06/04 08:33:44;;;;;;;24.27;21.35;;;;;;;21.45;62.44;102143.41;5113268;28;20027;-41
2021/06/04 08:36:17;;;;;;;24.83;21.42;;;;;;;21.50;61.61;102144.25;5116001;28;20062;-41
2021/06/04 08:38:42;;;;;;;22.05;19.77;;;;;;;21.65;63.76;102140.69;5117578;28;20061;-40
2021/06/04 08:41:15;;;;;;;25.08;19.88;;;;;;;21.69;61.38;102143.72;5117098;28;20063;-40
2021/06/04 08:44:05;;;;;;;23.55;18.95;;;;;;;21.78;60.83;102140.16;5117528;28;20028;-40
2021/06/04 08:46:38;;;;;;;21.65;19.38;;;;;;;22.00;60.17;102139.03;5117157;28;20026;-40
2021/06/04 08:49:39;;;;;;;21.73;16.58;;;;;;;22.10;57.03;102139.03;5116808;28;20030;-40
2021/06/04 08:52:18;;;;;;;20.83;18.83;;;;;;;22.12;57.91;102139.63;5116998;28;20562;-40
2021/06/04 08:55:05;;;;;;;21.35;18.50;;;;;;;22.40;59.10;102142.84;5117259;28;20379;-40
2021/06/04 08:57:54;;;;;;;22.13;19.73;;;;;;;22.37;57.17;102136.00;5116688;28;20048;-40
2021/06/04 09:00:25;;;;;;;24.65;20.83;;;;;;;22.53;58.24;102145.84;5116686;28;20024;-40
2021/06/04 09:02:58;;;;;;;25.38;20.30;;;;;;;22.52;59.96;102148.91;5116607;28;20044;-40
2021/06/04 09:05:37;;;;;;;26.38;19.90;;;;;;;22.63;58.30;102145.00;5116795;28;20027;-41
2021/06/04 09:08:02;;;;;;;21.42;18.35;;;;;;;22.71;60.15;102141.66;5116796;28;20019;-40
2021/06/04 09:10:36;;;;;;;20.70;17.23;;;;;;;22.75;56.55;102140.00;5116696;28;20455;-40
2021/06/04 09:13:15;;;;;;;21.45;17.67;;;;;;;22.96;56.02;102149.03;5116656;28;20023;-40
2021/06/04 09:15:43;;;;;;;19.70;17.52;;;;;;;23.07;55.77;102142.34;5116958;28;20015;-40
2021/06/04 09:18:11;;;;;;;21.48;19.23;;;;;;;23.08;55.05;102146.78;5115703;28;20468;-40
2021/06/04 09:21:00;;;;;;;24.40;20.15;;;;;;;23.29;54.51;102141.97;5117045;28;20066;-40
2021/06/04 09:23:42;;;;;;;21.10;18.90;;;;;;;23.45;53.47;102134.41;5116174;28;20023;-40
2021/06/04 09:26:12;;;;;;;20.02;18.13;;;;;;;23.49;53.01;102140.19;5116935;28;20024;-40
2021/06/04 09:28:59;;;;;;;18.90;16.90;;;;;;;23.72;55.75;102133.13;5116058;28;20024;-40
2021/06/04 09:31:34;;;;;;;18.13;14.85;;;;;;;23.74;53.83;102142.78;5115777;28;20110;-40
2021/06/04 09:34:14;;;;;;;17.73;15.77;;;;;;;24.06;52.08;102139.47;5116356;28;20081;-40
2021/06/04 09:36:49;;;;;;;19.38;16.10;;;;;;;24.27;51.89;102142.84;5116231;28;20026;-40
2021/06/04 09:39:33;;;;;;;18.02;15.80;;;;;;;24.27;50.20;102134.56;5115816;28;20375;-40
2021/06/04 09:42:07;;;;;;;16.90;14.63;;;;;;;24.53;51.87;102123.25;5116157;28;20038;-40
2021/06/04 09:44:34;;;;;;;16.98;14.25;;;;;;;24.49;48.98;102130.47;5115733;28;20023;-40
2021/06/04 09:47:15;;;;;;;14.70;13.18;;;;;;;24.81;48.91;102124.28;5115020;28;20514;-40
2021/06/04 09:49:40;;;;;;;13.18;10.73;;;;;;;24.93;47.47;102124.66;5115999;28;20028;-40
2021/06/04 09:52:23;;;;;;;14.25;11.93;;;;;;;25.07;47.90;102117.31;5116442;28;20356;-41
2021/06/04 09:55:26;;;;;;;17.02;13.48;;;;;;;24.99;49.25;102122.69;5115592;28;20486;-40
2021/06/04 09:58:12;;;;;;;12.60;11.30;;;;;;;25.14;49.19;102120.56;5093209;28;20425;-40
2021/06/04 10:01:05;;;;;;;16.30;12.95;;;;;;;24.95;48.02;102107.78;5093447;28;20036;-41
2021/06/04 10:03:36;;;;;;;15.93;12.73;;;;;;;25.15;47.28;102118.59;5093193;28;20040;-41
2021/06/04 10:06:05;;;;;;;14.73;13.18;;;;;;;25.12;47.13;102117.25;5092657;28;20077;-40
2021/06/04 10:08:31;;;;;;;17.30;11.90;;;;;;;25.24;47.43;102107.69;5093067;28;20028;-40
2021/06/04 10:11:05;;;;;;;14.75;11.95;;;;;;;25.65;46.20;102122.53;5092522;28;20042;-40
2021/06/04 10:13:39;;;;;;;12.25;10.48;;;;;;;25.77;45.76;102115.69;5092651;28;20047;-40
2021/06/04 10:16:47;;;;;;;13.95;12.27;;;;;;;25.81;45.61;102108.44;5092557;28;20035;-40
2021/06/04 10:19:33;;;;;;;13.85;11.00;;;;;;;25.74;45.10;102116.31;5092039;28;20504;-41
2021/06/04 10:22:16;;;;;;;14.75;12.20;;;;;;;25.77;46.37;102108.25;5092295;28;20036;-40
2021/06/04 10:24:44;;;;;;;13.05;10.88;;;;;;;26.05;44.71;102099.97;5092191;28;20113;-41
2021/06/04 10:27:18;;;;;;;14.00;12.50;;;;;;;26.28;44.86;102092.63;5092209;28;20067;-40
2021/06/04 10:30:22;;;;;;;14.68;13.10;;;;;;;26.42;45.73;102101.75;5092969;28;20024;-41
2021/06/04 10:32:53;;;;;;;17.00;14.50;;;;;;;26.21;44.45;102095.81;5050304;28;20539;-41
2021/06/04 10:36:03;;;;;;;16.90;13.63;;;;;;;26.40;44.41;102093.75;5052396;28;20064;-41
2021/06/04 10:38:42;;;;;;;15.95;14.00;;;;;;;26.50;45.73;102086.38;5012794;28;20124;-40
2021/06/04 10:41:19;;;;;;;15.23;13.63;;;;;;;26.63;45.13;102091.09;5012092;28;20041;-41
2021/06/04 10:43:53;;;;;;;17.55;15.70;;;;;;;26.52;44.93;102084.13;5012062;28;20045;-41
2021/06/04 10:46:44;;;;;;;14.95;13.10;;;;;;;26.80;44.99;102079.38;5012355;28;20057;-41
2021/06/04 10:49:25;;;;;;;18.58;15.35;;;;;;;26.68;44.08;102068.78;5012355;28;20042;-40
2021/06/04 10:51:56;;;;;;;16.23;13.77;;;;;;;26.73;44.27;102071.44;5012184;28;20096;-41
2021/06/04 10:54:25;;;;;;;15.82;14.18;;;;;;;26.79;43.00;102069.38;5012297;28;20117;-40
2021/06/04 10:57:06;;;;;;;15.43;13.18;;;;;;;27.06;43.56;102071.28;5011961;28;20057;-41
2021/06/04 11:00:05;;;;;;;15.80;14.07;;;;;;;26.82;43.59;102063.22;5011069;28;20104;-41
2021/06/04 11:02:39;;;;;;;18.77;14.73;;;;;;;26.44;43.42;102064.28;5011741;28;20055;-40
2021/06/04 11:05:37;;;;;;;17.08;15.27;;;;;;;26.67;45.75;102056.88;5012203;28;20030;-41
2021/06/04 11:08:16;;;;;;;17.00;14.43;;;;;;;26.73;43.96;102054.00;5071453;28;20632;-41
2021/06/04 11:10:53;;;;;;;15.57;13.98;;;;;;;26.65;43.61;102064.69;5071302;28;20103;-41
2021/06/04 11:13:43;;;;;;;15.63;14.02;;;;;;;26.79;44.13;102059.13;5075375;28;20042;-41
2021/06/04 11:16:53;;;;;;;17.75;14.30;;;;;;;26.73;45.06;102054.81;5094052;28;20024;-40
2021/06/04 11:19:32;;;;;;;13.88;11.00;;;;;;;27.23;43.75;102049.22;5091934;28;20040;-41
2021/06/04 11:22:02;;;;;;;11.27;9.48;;;;;;;27.46;42.18;102045.31;5092081;28;20036;-41
2021/06/04 11:24:40;;;;;;;11.68;10.48;;;;;;;27.60;41.81;102047.22;5091413;28;20404;-41
2021/06/04 11:27:06;;;;;;;13.02;9.88;;;;;;;27.90;40.64;102040.03;5086512;28;20036;-41
2021/06/04 11:29:37;;;;;;;12.00;10.60;;;;;;;27.71;42.04;102043.03;5077145;28;20133;-40
2021/06/04 11:32:16;;;;;;;14.07;9.52;;;;;;;28.08;41.93;102027.03;5071492;28;20112;-41
2021/06/04 11:34:44;;;;;;;14.60;11.50;;;;;;;28.01;40.46;102037.78;5069533;28;20024;-41
2021/06/04 11:37:30;;;;;;;11.60;10.40;;;;;;;28.18;40.71;102029.53;5077965;28;20036;-41
2021/06/04 11:40:06;;;;;;;11.45;9.18;;;;;;;28.44;41.87;102029.63;5085891;28;20031;-41
2021/06/04 11:42:50;;;;;;;12.90;10.55;;;;;;;28.28;42.56;102032.00;5091359;28;20076;-41